Pays
Station

 

Conditions  météo  pour  Treviso/S. Angelo  -  Italie    Italie

  
13 °C
    
 
 

METAR pour Treviso/S. Angelo :

LIPH 232120Z AUTO 02005KT 350V050 5000 +RA OVC003/// 13/13 Q1009

 

Voici le bulletin pour Treviso/S. Angelo - Italie.
 
Le bulletin a été fait il y a 42 minutes, à 21:20 UTC .
Le vent soufflait à la vitesse de 2.6 mètres par seconde de Nord/Nord-est (020°), variant entre Nord (350°) et Nord-est (050°).
 
La température était de 13 °C, avec un point de rosée à 13 °C.
La pression atmosphérique était de 1009 hPa.
L'humidité relative était de 100.0%.
 
La visibilité globale était de 5.0 kilomètres.
 
Actuellement fort(e) pluie.

 
 
 

Pays :   A   B   C   D   E   F   G   H   I   J   K   L   M   N   O   P   Q   R   S   T   U   V   W   Y   Z

 

Partenaires :  Info Météo avec Met'info
Météo Marine avec MeteoMarine.net
Infos Site  |  Infos Légales  |  Crédits  |  Confidentialité
Contactez-nous  |  Ajouter aux favoris
© 2013-2019 METAR - Tous droits réservés